Time;durP1;ratioP1;P1;durP2;ratioP2;P2;SDS_P1;SDS_P2;PMS_P1;PMS_P2;Temp;Humidity;BMP_temperature;BMP_pressure;BME280_temperature;BME280_humidity;BME280_pressure;Samples;Min_cycle;Max_cycle;Signal;HPM_P1;HPM_P2
2021/01/29 00:02:47;;;;;;;8.33;7.53;;;2.00;99.90;;;;;;6108012;23;20237;-84
2021/01/29 00:05:54;;;;;;;10.10;7.43;;;2.00;99.90;;;;;;6108901;23;20259;-84
2021/01/29 00:08:59;;;;;;;9.13;8.23;;;2.10;99.90;;;;;;6108074;23;20242;-84
2021/01/29 00:12:04;;;;;;;9.60;8.60;;;2.10;99.90;;;;;;6106450;23;20185;-84
2021/01/29 00:15:11;;;;;;;10.47;8.80;;;2.20;99.90;;;;;;6107547;23;20170;-84
2021/01/29 00:18:15;;;;;;;10.30;9.00;;;2.20;99.90;;;;;;6106837;23;20169;-84
2021/01/29 00:21:19;;;;;;;9.30;8.27;;;2.20;99.90;;;;;;6107992;23;20610;-84
2021/01/29 00:24:25;;;;;;;12.70;9.57;;;2.20;99.90;;;;;;6121075;23;20193;-84
2021/01/29 00:27:29;;;;;;;9.80;8.33;;;2.20;99.90;;;;;;6118496;23;20212;-81
2021/01/29 00:30:34;;;;;;;9.70;8.37;;;2.20;99.90;;;;;;6096293;23;20520;-75
2021/01/29 00:33:38;;;;;;;12.23;9.00;;;2.20;99.90;;;;;;6097928;23;20170;-75
2021/01/29 00:36:42;;;;;;;9.03;8.13;;;2.30;99.90;;;;;;6096679;23;20217;-76
2021/01/29 00:39:47;;;;;;;12.00;9.17;;;2.30;99.90;;;;;;6101510;23;20169;-82
2021/01/29 00:42:51;;;;;;;10.87;8.50;;;2.30;99.90;;;;;;6104630;23;20204;-81
2021/01/29 00:45:55;;;;;;;10.43;9.13;;;2.30;99.90;;;;;;6106154;23;20244;-82
2021/01/29 00:48:59;;;;;;;9.73;8.73;;;2.30;99.90;;;;;;6106057;23;20604;-82
2021/01/29 00:52:03;;;;;;;9.23;8.30;;;2.30;99.90;;;;;;6106671;23;20573;-82
2021/01/29 00:55:10;;;;;;;13.00;9.77;;;2.20;99.90;;;;;;6107250;23;20169;-82
2021/01/29 00:58:14;;;;;;;11.60;9.87;;;2.20;99.90;;;;;;6108681;23;20215;-82
2021/01/29 01:01:18;;;;;;;11.90;10.03;;;2.20;99.90;;;;;;6107668;23;20254;-82
2021/01/29 01:04:22;;;;;;;11.53;9.87;;;2.20;99.90;;;;;;6106481;23;20173;-82
2021/01/29 01:07:26;;;;;;;12.90;10.57;;;2.30;99.90;;;;;;6105291;23;20211;-82
2021/01/29 01:10:31;;;;;;;14.63;11.10;;;2.30;99.90;;;;;;6106101;23;20212;-82
2021/01/29 01:13:35;;;;;;;11.47;8.90;;;2.30;99.90;;;;;;6106346;23;20284;-82
2021/01/29 01:16:39;;;;;;;14.50;9.20;;;2.20;99.90;;;;;;6104791;23;20717;-82
2021/01/29 01:19:44;;;;;;;11.43;8.57;;;2.20;99.90;;;;;;6105119;23;20658;-83
2021/01/29 01:22:48;;;;;;;12.77;8.83;;;2.20;99.90;;;;;;6105871;23;20622;-82
2021/01/29 01:25:53;;;;;;;11.60;9.40;;;2.20;99.90;;;;;;6104979;23;20235;-82
2021/01/29 01:28:58;;;;;;;14.07;10.50;;;2.20;99.90;;;;;;6104876;23;20687;-82
2021/01/29 01:32:02;;;;;;;12.37;9.57;;;2.20;99.90;;;;;;6105038;23;20208;-81
2021/01/29 01:35:07;;;;;;;12.80;10.43;;;2.20;99.90;;;;;;6104914;23;20215;-83
2021/01/29 01:38:11;;;;;;;12.73;9.87;;;2.20;99.90;;;;;;6104343;23;20206;-83
2021/01/29 01:41:16;;;;;;;12.27;11.00;;;2.20;99.90;;;;;;6104318;23;20629;-82
2021/01/29 01:44:29;;;;;;;10.47;9.37;;;2.10;99.90;;;;;;6104099;23;20168;-82
2021/01/29 01:47:36;;;;;;;12.80;10.17;;;2.10;99.90;;;;;;6104757;23;20245;-82
2021/01/29 01:50:43;;;;;;;12.30;11.00;;;2.10;99.90;;;;;;6104252;23;20216;-82
2021/01/29 01:53:49;;;;;;;13.47;11.00;;;2.00;99.90;;;;;;6104915;23;20619;-82
2021/01/29 01:56:57;;;;;;;11.93;10.17;;;2.00;99.90;;;;;;6103150;23;20216;-82
2021/01/29 02:00:07;;;;;;;13.77;11.17;;;2.10;99.90;;;;;;6104109;23;20267;-82
2021/01/29 02:03:15;;;;;;;14.03;9.87;;;2.10;99.90;;;;;;6104630;23;20177;-82
2021/01/29 02:06:20;;;;;;;11.30;9.97;;;2.00;99.90;;;;;;6104950;23;20249;-82
2021/01/29 02:09:26;;;;;;;10.93;9.80;;;2.00;99.90;;;;;;6104856;23;20228;-82
2021/01/29 02:12:31;;;;;;;12.53;10.40;;;2.00;99.90;;;;;;6104464;23;20171;-82
2021/01/29 02:15:39;;;;;;;12.63;10.90;;;1.90;99.90;;;;;;6104482;23;20181;-81
2021/01/29 02:19:00;;;;;;;13.47;10.80;;;1.90;99.90;;;;;;6104262;23;20246;-82
2021/01/29 02:22:37;;;;;;;13.27;9.70;;;1.90;99.90;;;;;;6104317;23;20161;-82
2021/01/29 02:26:17;;;;;;;15.67;11.93;;;1.90;99.90;;;;;;6104791;23;20272;-82
2021/01/29 02:29:53;;;;;;;13.03;11.63;;;1.90;99.90;;;;;;6103855;23;20250;-82
2021/01/29 02:33:27;;;;;;;16.47;12.87;;;1.80;99.90;;;;;;6104039;23;20519;-82
2021/01/29 02:37:12;;;;;;;16.63;12.80;;;1.80;99.90;;;;;;6103652;23;20216;-82
2021/01/29 02:40:21;;;;;;;17.87;12.70;;;1.90;99.90;;;;;;6103921;23;20172;-82
2021/01/29 02:43:46;;;;;;;14.73;12.53;;;1.90;99.90;;;;;;6104275;23;20237;-82
2021/01/29 02:46:54;;;;;;;15.97;13.27;;;1.90;99.90;;;;;;6103731;23;20556;-82
2021/01/29 02:50:24;;;;;;;18.90;14.03;;;1.90;99.90;;;;;;6104543;23;20679;-82
2021/01/29 02:53:41;;;;;;;17.93;13.80;;;1.90;99.90;;;;;;6104404;23;20165;-83
2021/01/29 02:56:51;;;;;;;22.00;13.20;;;1.80;99.90;;;;;;6103290;23;20248;-82
2021/01/29 03:00:05;;;;;;;18.73;14.33;;;1.80;99.90;;;;;;6104807;23;20168;-82
2021/01/29 03:03:15;;;;;;;17.05;14.10;;;1.80;99.90;;;;;;6104245;23;20216;-82
2021/01/29 03:06:24;;;;;;;16.33;13.80;;;1.80;99.90;;;;;;6104183;23;20292;-82
2021/01/29 03:09:33;;;;;;;16.23;13.07;;;1.80;99.90;;;;;;6103741;23;20529;-82
2021/01/29 03:12:42;;;;;;;17.60;12.77;;;1.70;99.90;;;;;;6104472;23;20535;-83
2021/01/29 03:15:55;;;;;;;16.70;13.50;;;1.80;99.90;;;;;;6103839;23;20606;-82
2021/01/29 03:19:06;;;;;;;22.57;13.30;;;1.80;99.90;;;;;;6115007;23;20668;-82
2021/01/29 03:22:15;;;;;;;18.93;12.67;;;1.80;99.90;;;;;;6117477;23;20172;-82
2021/01/29 03:25:23;;;;;;;18.30;13.00;;;1.70;99.90;;;;;;6118103;23;20217;-82
2021/01/29 03:28:32;;;;;;;14.23;11.40;;;1.70;99.90;;;;;;6117336;23;20203;-82
2021/01/29 03:31:41;;;;;;;17.07;12.97;;;1.70;99.90;;;;;;6108301;23;20198;-82
2021/01/29 03:34:51;;;;;;;17.63;11.07;;;1.70;99.90;;;;;;6105464;23;20201;-83
2021/01/29 03:38:00;;;;;;;16.20;12.20;;;1.60;99.90;;;;;;6104147;23;20228;-82
2021/01/29 03:41:18;;;;;;;12.80;10.30;;;1.60;99.90;;;;;;6103300;23;20610;-82
2021/01/29 03:44:32;;;;;;;19.73;12.03;;;1.60;99.90;;;;;;6105495;23;20192;-82
2021/01/29 03:47:44;;;;;;;16.07;11.97;;;1.70;99.90;;;;;;6106004;23;20207;-83
2021/01/29 03:50:53;;;;;;;16.30;12.30;;;1.80;99.90;;;;;;6103904;23;20637;-81
2021/01/29 03:54:02;;;;;;;18.03;14.23;;;1.60;99.90;;;;;;6103996;23;20659;-83
2021/01/29 03:57:19;;;;;;;13.80;12.37;;;1.60;99.90;;;;;;6107308;23;20283;-82
2021/01/29 04:00:34;;;;;;;15.53;12.20;;;1.60;99.90;;;;;;6112358;23;20193;-82
2021/01/29 04:03:41;;;;;;;16.30;12.47;;;1.70;99.90;;;;;;6113649;23;20173;-82
2021/01/29 04:06:55;;;;;;;16.33;12.10;;;1.70;99.90;;;;;;6105164;23;20232;-81
2021/01/29 04:10:03;;;;;;;18.57;15.00;;;1.70;99.90;;;;;;6105970;23;20265;-82
2021/01/29 04:13:11;;;;;;;18.90;13.30;;;1.60;99.90;;;;;;6106950;23;20216;-82
2021/01/29 04:16:20;;;;;;;15.93;14.17;;;1.70;99.90;;;;;;6105043;23;20219;-82
2021/01/29 04:19:27;;;;;;;19.60;14.37;;;1.60;99.90;;;;;;6106224;23;20168;-82
2021/01/29 04:22:37;;;;;;;16.33;14.60;;;1.60;99.90;;;;;;6106323;23;20169;-82
2021/01/29 04:25:45;;;;;;;19.97;14.87;;;1.70;99.90;;;;;;6105267;23;20189;-83
2021/01/29 04:29:00;;;;;;;15.90;14.07;;;1.70;99.90;;;;;;6106137;23;20172;-82
2021/01/29 04:32:10;;;;;;;17.53;15.10;;;1.60;99.90;;;;;;6105453;23;20164;-82
2021/01/29 04:35:17;;;;;;;17.20;14.93;;;1.60;99.90;;;;;;6105407;23;20188;-81
2021/01/29 04:38:25;;;;;;;17.40;14.70;;;1.60;99.90;;;;;;6105864;23;20172;-82
2021/01/29 04:41:43;;;;;;;17.23;15.17;;;1.60;99.90;;;;;;6107970;23;20164;-82
2021/01/29 04:45:08;;;;;;;18.27;14.17;;;1.60;99.90;;;;;;6112119;23;20236;-82
2021/01/29 04:48:19;;;;;;;19.33;16.30;;;1.60;99.90;;;;;;6112799;23;20168;-82
2021/01/29 04:52:14;;;;;;;18.47;14.70;;;1.60;99.90;;;;;;6111761;23;20172;-82
2021/01/29 04:55:40;;;;;;;19.47;14.90;;;1.60;99.90;;;;;;5994977;24;20293;-81
2021/01/29 04:59:04;;;;;;;22.20;15.67;;;1.60;99.90;;;;;;6020594;23;20210;-81
2021/01/29 05:03:01;;;;;;;19.70;15.07;;;1.60;99.90;;;;;;6111372;23;20173;-81
2021/01/29 05:06:18;;;;;;;15.30;13.77;;;1.60;99.90;;;;;;6112406;23;20220;-81
2021/01/29 05:09:57;;;;;;;16.90;14.70;;;1.60;99.90;;;;;;6113742;23;20193;-82
2021/01/29 05:13:32;;;;;;;17.23;13.27;;;1.60;99.90;;;;;;6074292;23;20211;-81
2021/01/29 05:17:06;;;;;;;17.73;13.13;;;1.60;99.90;;;;;;6111804;23;20294;-82
2021/01/29 05:20:22;;;;;;;19.57;14.27;;;1.60;99.90;;;;;;6111813;23;20194;-82
2021/01/29 05:24:14;;;;;;;15.87;13.00;;;1.50;99.90;;;;;;6111269;23;20219;-82
2021/01/29 05:27:53;;;;;;;16.50;11.93;;;1.70;99.90;;;;;;5991918;23;20207;-81
2021/01/29 05:31:27;;;;;;;14.17;12.63;;;1.60;99.90;;;;;;6105546;23;20209;-82
2021/01/29 05:34:38;;;;;;;18.87;13.17;;;1.60;99.90;;;;;;6111238;23;20168;-81
2021/01/29 05:38:14;;;;;;;20.40;13.30;;;1.60;99.90;;;;;;6110364;23;20244;-82
2021/01/29 05:41:41;;;;;;;17.80;14.60;;;1.50;99.90;;;;;;6110977;23;20228;-81
2021/01/29 05:45:15;;;;;;;17.37;14.70;;;1.60;99.90;;;;;;6112102;23;20555;-82
2021/01/29 05:49:05;;;;;;;19.83;15.00;;;1.60;99.90;;;;;;6113754;23;20197;-82
2021/01/29 05:52:30;;;;;;;23.93;17.20;;;1.60;99.90;;;;;;6112091;23;20189;-82
2021/01/29 05:55:49;;;;;;;23.63;16.67;;;1.50;99.90;;;;;;6109250;23;20220;-82
2021/01/29 05:59:21;;;;;;;26.07;19.33;;;1.50;99.90;;;;;;6107468;23;20173;-82
2021/01/29 06:02:47;;;;;;;23.77;17.47;;;1.50;99.90;;;;;;6104676;23;20189;-82
2021/01/29 06:06:17;;;;;;;31.63;21.63;;;1.50;99.90;;;;;;6104020;23;20198;-81
2021/01/29 06:09:44;;;;;;;25.07;19.93;;;1.50;99.90;;;;;;6105288;23;20196;-81
2021/01/29 06:13:25;;;;;;;26.13;21.30;;;1.50;99.90;;;;;;6104007;23;20169;-81
2021/01/29 06:17:08;;;;;;;29.50;23.00;;;1.50;99.90;;;;;;6103810;23;20212;-81
2021/01/29 06:21:01;;;;;;;29.93;24.20;;;1.50;99.90;;;;;;6104365;23;20162;-82
2021/01/29 06:24:42;;;;;;;33.93;23.90;;;1.50;99.90;;;;;;6047788;23;20192;-81
2021/01/29 06:28:12;;;;;;;28.07;22.73;;;1.50;99.90;;;;;;6105326;23;20584;-82
2021/01/29 06:32:09;;;;;;;32.87;23.67;;;1.50;99.90;;;;;;6105318;23;20208;-82
2021/01/29 06:35:52;;;;;;;31.03;22.03;;;1.50;99.90;;;;;;6106103;23;20192;-82
2021/01/29 06:39:31;;;;;;;29.10;22.63;;;1.60;99.90;;;;;;6103283;23;20210;-81
2021/01/29 06:43:12;;;;;;;29.60;21.13;;;1.50;99.90;;;;;;6103052;23;20179;-82
2021/01/29 06:46:44;;;;;;;30.40;21.63;;;1.50;99.90;;;;;;6102493;23;20544;-81
2021/01/29 06:50:42;;;;;;;27.60;20.77;;;1.50;99.90;;;;;;6104421;23;20716;-81
2021/01/29 06:54:40;;;;;;;27.83;21.23;;;1.70;99.90;;;;;;5989145;24;20190;-82
2021/01/29 06:58:05;;;;;;;28.47;20.73;;;1.40;99.90;;;;;;5987761;23;20210;-82
2021/01/29 07:01:37;;;;;;;35.47;21.13;;;1.50;99.90;;;;;;6050695;23;20642;-82
2021/01/29 07:05:32;;;;;;;26.10;20.27;;;1.50;99.90;;;;;;6104787;23;20176;-82
2021/01/29 07:09:18;;;;;;;30.70;22.23;;;1.50;99.90;;;;;;6002063;24;20448;-81
2021/01/29 07:13:17;;;;;;;21.77;18.33;;;1.50;99.90;;;;;;6014541;23;20241;-82
2021/01/29 07:17:10;;;;;;;30.93;21.50;;;1.50;99.90;;;;;;6102917;23;20529;-81
2021/01/29 07:20:32;;;;;;;31.90;22.13;;;1.50;99.90;;;;;;6086103;23;20165;-82
2021/01/29 07:24:06;;;;;;;31.43;23.17;;;1.50;99.90;;;;;;6102595;23;20173;-82
2021/01/29 07:27:22;;;;;;;28.83;21.27;;;1.50;99.90;;;;;;6102859;23;20204;-82
2021/01/29 07:30:55;;;;;;;27.60;20.70;;;1.50;99.90;;;;;;6102838;23;20269;-82
2021/01/29 07:34:06;;;;;;;29.63;21.67;;;1.50;99.90;;;;;;6103813;23;20220;-81
2021/01/29 07:37:57;;;;;;;31.57;22.30;;;1.50;99.90;;;;;;6102097;23;20628;-82
2021/01/29 07:41:16;;;;;;;26.93;21.20;;;1.60;99.90;;;;;;6008174;23;20190;-82
2021/01/29 07:44:30;;;;;;;33.97;24.67;;;1.60;99.90;;;;;;6017249;23;20177;-82
2021/01/29 07:48:04;;;;;;;35.53;26.03;;;1.60;99.90;;;;;;6103881;23;20232;-82
2021/01/29 07:51:14;;;;;;;34.03;24.00;;;1.70;99.90;;;;;;6103291;23;20524;-82
2021/01/29 07:54:40;;;;;;;32.23;22.80;;;1.60;99.90;;;;;;6103488;23;20177;-82
2021/01/29 07:58:08;;;;;;;32.90;23.63;;;1.60;99.90;;;;;;6104674;23;20279;-82
2021/01/29 08:01:40;;;;;;;33.57;23.33;;;1.60;99.90;;;;;;6104906;23;20297;-82
2021/01/29 08:05:11;;;;;;;31.80;23.57;;;1.70;99.90;;;;;;6105294;23;20197;-82
2021/01/29 08:08:11;;;;;;;33.33;25.03;;;1.70;99.90;;;;;;6119015;23;20504;-58
2021/01/29 08:11:17;;;;;;;32.33;23.53;;;1.70;99.90;;;;;;6122418;23;20307;-58
2021/01/29 08:14:37;;;;;;;30.50;22.60;;;1.80;99.90;;;;;;6122979;23;20688;-58
2021/01/29 08:17:58;;;;;;;34.20;23.90;;;1.70;99.90;;;;;;6122939;23;20215;-57
2021/01/29 08:21:39;;;;;;;29.30;21.37;;;1.70;99.90;;;;;;6121413;23;20291;-61
2021/01/29 08:25:15;;;;;;;28.27;21.57;;;1.80;99.90;;;;;;6121909;23;20192;-60
2021/01/29 08:28:44;;;;;;;29.57;21.20;;;1.80;99.90;;;;;;6067664;23;20195;-60
2021/01/29 08:32:25;;;;;;;31.93;21.43;;;1.80;99.90;;;;;;6093056;23;20192;-60
2021/01/29 08:35:39;;;;;;;31.87;22.27;;;1.70;99.90;;;;;;6092623;23;20626;-59
2021/01/29 08:38:49;;;;;;;29.27;21.03;;;1.70;99.90;;;;;;6093009;23;20172;-60
2021/01/29 08:42:04;;;;;;;30.60;22.50;;;1.80;99.90;;;;;;6092936;23;20217;-60
2021/01/29 08:45:34;;;;;;;32.40;23.53;;;1.80;99.90;;;;;;6092446;23;20351;-61
2021/01/29 08:49:05;;;;;;;29.80;22.77;;;1.70;99.90;;;;;;6093212;23;20184;-60
2021/01/29 08:52:19;;;;;;;31.97;22.93;;;1.70;99.90;;;;;;6093176;23;20209;-59
2021/01/29 08:55:35;;;;;;;31.00;24.10;;;1.80;99.90;;;;;;6094241;23;20283;-60
2021/01/29 08:58:49;;;;;;;31.97;24.60;;;1.80;99.90;;;;;;6094362;23;20232;-60
2021/01/29 09:02:00;;;;;;;28.00;21.07;;;1.80;99.90;;;;;;6094227;23;20252;-62
2021/01/29 09:05:09;;;;;;;26.80;20.57;;;1.80;99.90;;;;;;6093435;23;20224;-60
2021/01/29 09:08:17;;;;;;;32.00;23.53;;;1.90;99.90;;;;;;6093804;23;20634;-59
2021/01/29 09:11:26;;;;;;;24.83;20.80;;;1.80;99.90;;;;;;6093706;23;20239;-59
2021/01/29 09:14:36;;;;;;;26.27;20.20;;;1.80;99.90;;;;;;6093774;23;20734;-60
2021/01/29 09:17:44;;;;;;;26.43;21.00;;;1.80;99.90;;;;;;6093688;23;20169;-59
2021/01/29 09:21:01;;;;;;;28.87;20.50;;;1.90;99.90;;;;;;6093793;23;20303;-60
2021/01/29 09:24:10;;;;;;;25.50;20.30;;;1.90;99.90;;;;;;6093760;23;20238;-60
2021/01/29 09:27:41;;;;;;;26.73;19.67;;;1.80;99.90;;;;;;6093727;23;20188;-60
2021/01/29 09:30:56;;;;;;;24.67;20.23;;;1.80;99.90;;;;;;6093991;23;20207;-59
2021/01/29 09:34:05;;;;;;;27.13;20.17;;;2.00;99.90;;;;;;6093575;23;20516;-58
2021/01/29 09:37:11;;;;;;;26.90;21.03;;;1.90;99.90;;;;;;6093584;23;20172;-60
2021/01/29 09:40:23;;;;;;;26.43;20.50;;;1.90;99.90;;;;;;6093431;23;20203;-60
2021/01/29 09:43:38;;;;;;;25.73;21.30;;;1.90;99.90;;;;;;6094392;23;20170;-60
2021/01/29 09:46:45;;;;;;;25.27;20.97;;;1.90;99.90;;;;;;6093070;23;20186;-59
2021/01/29 09:49:58;;;;;;;27.73;21.47;;;1.90;99.90;;;;;;6094037;23;20267;-59
2021/01/29 09:53:27;;;;;;;34.60;25.43;;;1.90;99.90;;;;;;6093566;23;20168;-60
2021/01/29 09:56:38;;;;;;;28.90;23.73;;;1.90;99.90;;;;;;6093670;23;20221;-59
2021/01/29 09:59:48;;;;;;;34.03;26.60;;;1.80;99.90;;;;;;6093240;23;20257;-60
2021/01/29 10:02:56;;;;;;;34.73;25.87;;;1.80;99.90;;;;;;6093397;23;20197;-60
2021/01/29 10:06:05;;;;;;;33.73;25.87;;;1.80;99.90;;;;;;6093193;23;20237;-60
2021/01/29 10:09:14;;;;;;;34.97;27.00;;;1.90;99.90;;;;;;6093396;23;20173;-59
2021/01/29 10:12:26;;;;;;;31.30;25.33;;;1.80;99.90;;;;;;6094132;23;20190;-60
2021/01/29 10:15:35;;;;;;;30.87;25.50;;;1.90;99.90;;;;;;6093130;23;20204;-61
2021/01/29 10:18:41;;;;;;;32.30;26.27;;;1.80;99.90;;;;;;6093586;23;20185;-60
2021/01/29 10:22:24;;;;;;;31.73;26.63;;;1.90;99.90;;;;;;6093343;23;20161;-60
2021/01/29 10:25:40;;;;;;;32.07;26.17;;;1.90;99.90;;;;;;6093154;23;20538;-61
2021/01/29 10:29:02;;;;;;;32.03;25.43;;;1.90;99.90;;;;;;6093605;23;20176;-60
2021/01/29 10:32:17;;;;;;;29.00;25.43;;;2.00;99.90;;;;;;6093377;23;20216;-60
2021/01/29 10:35:25;;;;;;;30.97;25.27;;;2.00;99.90;;;;;;6092809;23;20166;-61
2021/01/29 10:38:36;;;;;;;28.03;22.30;;;2.00;99.90;;;;;;6092724;23;20176;-62
2021/01/29 10:41:48;;;;;;;29.80;23.67;;;2.00;99.90;;;;;;6093404;23;20301;-61
2021/01/29 10:44:53;;;;;;;33.27;24.70;;;1.90;99.90;;;;;;6093224;23;20235;-61
2021/01/29 10:48:09;;;;;;;31.60;23.33;;;1.90;99.90;;;;;;6093012;23;20171;-61
2021/01/29 10:51:46;;;;;;;26.33;21.90;;;2.00;99.90;;;;;;6092705;23;20212;-61
2021/01/29 10:54:51;;;;;;;25.87;21.70;;;2.00;99.90;;;;;;6055008;23;20193;-61
2021/01/29 10:58:22;;;;;;;23.50;19.40;;;2.00;99.90;;;;;;6093339;23;20220;-60
2021/01/29 11:01:33;;;;;;;23.27;18.87;;;2.00;99.90;;;;;;6093186;23;20780;-63
2021/01/29 11:04:40;;;;;;;22.73;19.33;;;2.00;99.90;;;;;;6092819;23;20618;-61
2021/01/29 11:07:49;;;;;;;20.27;18.07;;;2.10;99.90;;;;;;6092517;23;20499;-63
2021/01/29 11:11:01;;;;;;;22.50;17.33;;;2.10;99.90;;;;;;6092901;23;20714;-59
2021/01/29 11:14:18;;;;;;;21.07;18.37;;;2.10;99.90;;;;;;6092693;23;20220;-60
2021/01/29 11:17:30;;;;;;;21.87;18.53;;;2.10;99.90;;;;;;6092295;23;20183;-60
2021/01/29 11:20:36;;;;;;;20.57;18.37;;;2.10;99.90;;;;;;6092529;23;20212;-58
2021/01/29 11:24:38;;;;;;;17.40;15.30;;;2.00;99.90;;;;;;6096747;23;20223;-81
2021/01/29 11:28:11;;;;;;;20.83;17.47;;;2.10;99.90;;;;;;6138335;23;20211;-82
2021/01/29 11:31:54;;;;;;;18.57;16.57;;;2.00;99.90;;;;;;6137370;23;20539;-81
2021/01/29 11:38:16;;;;;;;19.23;17.23;;;2.00;99.90;;;;;;6084634;23;20276;-82
2021/01/29 11:40:58;;;;;;;21.73;17.70;;;2.10;99.90;;;;;;6127635;23;20177;-81
2021/01/29 11:43:39;;;;;;;20.97;17.80;;;2.20;99.90;;;;;;6103844;23;20176;-82
2021/01/29 11:49:56;;;;;;;19.60;16.83;;;2.00;99.90;;;;;;6096088;23;20195;-80
2021/01/29 11:52:31;;;;;;;22.70;18.57;;;2.10;99.90;;;;;;6082413;23;20204;-82
2021/01/29 11:55:11;;;;;;;19.73;17.67;;;2.10;99.90;;;;;;6063920;23;20167;-82
2021/01/29 11:58:13;;;;;;;23.97;19.10;;;2.20;99.90;;;;;;6099290;23;20219;-81
2021/01/29 12:00:44;;;;;;;19.20;17.13;;;2.10;99.90;;;;;;6111737;23;20168;-81
2021/01/29 12:03:34;;;;;;;20.77;18.53;;;2.20;99.90;;;;;;6090035;23;20610;-82
2021/01/29 12:06:12;;;;;;;20.17;16.50;;;2.10;99.90;;;;;;6116426;23;20162;-83
2021/01/29 12:08:55;;;;;;;20.33;17.33;;;2.20;99.90;;;;;;6111970;23;20200;-82
2021/01/29 12:11:27;;;;;;;18.30;16.10;;;2.20;99.90;;;;;;6098572;23;20204;-75
2021/01/29 12:14:04;;;;;;;20.93;17.97;;;2.30;99.90;;;;;;6123833;23;20176;-76
2021/01/29 12:16:34;;;;;;;20.50;16.50;;;2.30;99.90;;;;;;6122943;23;20165;-75
2021/01/29 12:19:03;;;;;;;14.77;13.30;;;2.30;99.90;;;;;;6123486;23;20180;-76
2021/01/29 12:21:37;;;;;;;15.87;14.27;;;2.30;99.90;;;;;;6129537;23;20176;-81
2021/01/29 12:24:14;;;;;;;16.53;14.83;;;2.40;99.90;;;;;;6110789;23;20183;-86
2021/01/29 12:26:48;;;;;;;17.57;15.67;;;2.30;99.90;;;;;;6111030;23;20269;-84
2021/01/29 12:29:29;;;;;;;13.93;12.53;;;2.30;99.90;;;;;;6135481;23;20605;-86
2021/01/29 12:32:22;;;;;;;16.80;15.03;;;2.50;99.90;;;;;;6059285;23;20276;-85
2021/01/29 12:34:55;;;;;;;15.57;13.77;;;2.30;99.90;;;;;;6085562;23;20182;-84
2021/01/29 12:37:29;;;;;;;14.87;13.30;;;2.50;99.90;;;;;;6085745;23;20194;-85
2021/01/29 12:40:01;;;;;;;17.90;14.37;;;2.30;99.90;;;;;;6112031;23;20250;-84
2021/01/29 12:42:50;;;;;;;15.93;14.20;;;2.30;99.90;;;;;;6109545;23;20178;-84
2021/01/29 12:45:25;;;;;;;18.03;14.43;;;2.30;99.90;;;;;;6089048;23;20187;-84
2021/01/29 12:48:03;;;;;;;14.27;12.77;;;2.20;99.90;;;;;;6115128;23;20195;-83
2021/01/29 12:50:56;;;;;;;16.10;14.43;;;2.30;99.90;;;;;;6114512;23;20182;-85
2021/01/29 12:53:34;;;;;;;17.53;12.87;;;2.30;99.90;;;;;;6091009;23;20181;-84
2021/01/29 12:56:15;;;;;;;15.53;13.87;;;2.30;99.90;;;;;;6090230;23;20183;-84
2021/01/29 12:58:44;;;;;;;14.40;11.83;;;2.30;99.90;;;;;;6087886;23;20545;-84
2021/01/29 13:04:30;;;;;;;16.20;13.30;;;2.30;99.90;;;;;;6111723;23;20215;-84
2021/01/29 13:07:38;;;;;;;14.40;12.83;;;2.30;99.90;;;;;;6110500;23;20528;-83
2021/01/29 13:10:17;;;;;;;14.63;12.30;;;2.40;99.90;;;;;;6085418;23;20225;-82
2021/01/29 13:12:58;;;;;;;13.00;11.40;;;2.30;99.90;;;;;;6120272;23;20205;-85
2021/01/29 13:15:47;;;;;;;15.67;11.77;;;2.20;99.90;;;;;;6090269;23;20216;-86
2021/01/29 13:18:23;;;;;;;15.23;11.43;;;2.20;99.90;;;;;;6116769;23;20212;-84
2021/01/29 13:20:53;;;;;;;13.17;11.77;;;2.30;99.90;;;;;;6089553;23;20167;-85
2021/01/29 13:23:38;;;;;;;13.17;11.83;;;2.40;99.90;;;;;;6112205;23;20185;-84
2021/01/29 13:26:08;;;;;;;12.20;10.17;;;2.20;99.90;;;;;;6090130;23;20172;-83
2021/01/29 13:28:37;;;;;;;16.63;12.97;;;2.20;99.90;;;;;;6140377;23;20232;-85
2021/01/29 13:31:16;;;;;;;13.50;11.97;;;2.20;99.90;;;;;;6111709;23;20256;-84
2021/01/29 13:33:51;;;;;;;12.77;11.47;;;2.20;99.90;;;;;;6111756;23;20172;-85
2021/01/29 13:36:24;;;;;;;13.87;10.43;;;2.20;99.90;;;;;;6111456;23;20161;-86
2021/01/29 13:38:52;;;;;;;11.37;10.13;;;2.20;99.90;;;;;;6087676;23;20169;-84
2021/01/29 13:41:38;;;;;;;13.90;11.67;;;2.20;99.90;;;;;;6113584;23;20183;-85
2021/01/29 13:44:34;;;;;;;12.77;10.17;;;2.10;99.90;;;;;;6118253;23;20214;-85
2021/01/29 13:47:03;;;;;;;13.60;10.43;;;2.10;99.90;;;;;;6112103;23;20194;-85
2021/01/29 13:49:35;;;;;;;12.67;11.27;;;2.10;99.90;;;;;;6112959;23;20195;-85
2021/01/29 13:52:22;;;;;;;13.30;11.57;;;2.00;99.90;;;;;;6111313;23;20232;-84
2021/01/29 13:54:54;;;;;;;11.60;10.07;;;2.00;99.90;;;;;;6087076;23;20176;-85
2021/01/29 13:57:31;;;;;;;12.90;10.73;;;2.00;99.90;;;;;;6109930;23;20194;-84
2021/01/29 14:09:40;;;;;;;11.70;9.57;;;2.10;99.90;;;;;;6151508;23;20208;-63
2021/01/29 14:12:20;;;;;;;9.90;8.93;;;2.20;99.90;;;;;;6151846;23;20200;-62
2021/01/29 14:14:56;;;;;;;11.43;10.27;;;2.20;99.90;;;;;;6151693;23;20457;-62
2021/01/29 14:17:32;;;;;;;11.03;9.03;;;2.20;99.90;;;;;;6151462;23;20164;-62
2021/01/29 14:20:08;;;;;;;10.27;8.93;;;2.10;99.90;;;;;;6147301;23;20187;-63
2021/01/29 14:22:42;;;;;;;12.90;11.53;;;2.10;99.90;;;;;;6121885;23;20168;-63
2021/01/29 14:25:17;;;;;;;10.03;8.93;;;2.10;99.90;;;;;;6123749;23;20212;-62
2021/01/29 14:27:54;;;;;;;10.17;9.17;;;2.10;99.90;;;;;;6123528;23;20160;-63
2021/01/29 14:30:32;;;;;;;10.70;9.07;;;2.20;99.90;;;;;;6123256;23;20197;-62
2021/01/29 14:33:22;;;;;;;11.40;8.60;;;2.20;99.90;;;;;;6096994;23;20161;-63
2021/01/29 14:36:07;;;;;;;10.33;9.13;;;2.10;99.90;;;;;;6122511;23;20677;-63
2021/01/29 14:39:02;;;;;;;10.57;9.50;;;2.10;99.90;;;;;;6123310;23;20165;-63
2021/01/29 14:41:37;;;;;;;10.03;9.00;;;2.10;99.90;;;;;;6123065;23;20247;-64
2021/01/29 14:44:27;;;;;;;11.73;9.53;;;2.20;99.90;;;;;;6122899;23;20172;-63
2021/01/29 14:47:10;;;;;;;9.83;7.93;;;2.20;99.90;;;;;;6123334;23;20292;-62
2021/01/29 14:50:02;;;;;;;10.37;8.47;;;2.20;99.90;;;;;;6122812;23;20555;-63
2021/01/29 14:52:43;;;;;;;11.40;8.67;;;2.30;99.90;;;;;;6123052;23;20550;-63
2021/01/29 14:55:13;;;;;;;10.57;9.10;;;2.30;99.90;;;;;;6123493;23;20153;-62
2021/01/29 14:57:42;;;;;;;11.75;9.80;;;2.20;99.90;;;;;;6122135;23;20169;-64
2021/01/29 15:00:12;;;;;;;13.87;11.67;;;2.30;99.90;;;;;;6122371;23;20646;-62
2021/01/29 15:02:46;;;;;;;11.03;9.83;;;2.30;99.90;;;;;;6122820;23;20169;-63
2021/01/29 15:05:27;;;;;;;11.70;9.97;;;2.30;99.90;;;;;;6123505;23;20168;-63
2021/01/29 15:07:56;;;;;;;13.80;11.87;;;2.10;99.90;;;;;;6097260;23;20603;-60
2021/01/29 15:10:26;;;;;;;13.65;11.98;;;2.20;99.90;;;;;;6123463;23;20201;-62
2021/01/29 15:12:55;;;;;;;13.83;11.60;;;2.20;99.90;;;;;;6123240;23;20169;-62
2021/01/29 15:15:41;;;;;;;13.03;11.33;;;2.20;99.90;;;;;;6123473;23;20168;-61
2021/01/29 15:18:12;;;;;;;13.33;11.93;;;2.10;99.90;;;;;;6121510;23;20510;-62
2021/01/29 15:20:43;;;;;;;18.10;14.43;;;2.10;99.90;;;;;;6103578;23;20582;-61
2021/01/29 15:23:17;;;;;;;15.97;13.17;;;2.10;99.90;;;;;;6121334;23;20223;-62
2021/01/29 15:26:06;;;;;;;14.50;12.97;;;2.10;99.90;;;;;;6123106;23;20289;-61
2021/01/29 15:28:37;;;;;;;15.13;13.53;;;2.00;99.90;;;;;;6123235;23;20548;-60
2021/01/29 15:31:11;;;;;;;14.93;13.23;;;2.00;99.90;;;;;;6122510;23;20201;-60
2021/01/29 15:33:42;;;;;;;14.90;13.30;;;2.00;99.90;;;;;;6122391;23;20676;-59
2021/01/29 15:36:42;;;;;;;15.50;13.87;;;2.00;99.90;;;;;;6122280;23;20187;-60
2021/01/29 15:39:39;;;;;;;19.33;16.60;;;2.00;99.90;;;;;;6123093;23;20165;-60
2021/01/29 15:42:09;;;;;;;19.37;17.27;;;2.10;99.90;;;;;;6004773;23;20549;-59
2021/01/29 15:44:52;;;;;;;18.80;16.27;;;2.00;99.90;;;;;;6090543;23;20264;-60
2021/01/29 15:47:56;;;;;;;18.63;16.37;;;2.10;99.90;;;;;;6122914;23;20164;-60
2021/01/29 15:50:59;;;;;;;19.17;17.20;;;2.10;99.90;;;;;;6122790;23;20224;-60
2021/01/29 15:53:53;;;;;;;21.10;16.80;;;2.10;99.90;;;;;;6122303;23;20177;-60
2021/01/29 15:56:40;;;;;;;18.73;16.57;;;2.00;99.90;;;;;;6122385;23;20177;-60
2021/01/29 15:59:13;;;;;;;17.10;15.40;;;2.00;99.90;;;;;;6122509;23;20165;-61
2021/01/29 16:01:44;;;;;;;18.87;16.80;;;2.00;99.90;;;;;;6122226;23;20271;-61
2021/01/29 16:04:41;;;;;;;24.60;19.33;;;2.00;99.90;;;;;;6122529;23;20165;-60
2021/01/29 16:07:23;;;;;;;21.13;18.07;;;2.00;99.90;;;;;;6123947;23;20224;-60
2021/01/29 16:10:06;;;;;;;17.33;15.17;;;2.10;99.90;;;;;;6124166;23;20251;-59
2021/01/29 16:12:38;;;;;;;15.93;14.33;;;2.10;99.90;;;;;;6123800;23;20165;-60
2021/01/29 16:15:16;;;;;;;18.23;14.97;;;2.00;99.90;;;;;;6123939;23;20197;-61
2021/01/29 16:17:48;;;;;;;18.80;16.90;;;2.00;99.90;;;;;;6123641;23;20169;-61